»·PEaware :: AAL1282 KCLE-KDCA

AAL1282 :: KCLE-KDCA

FLIGHT INFORMATION

Flight Status: Arrived
Operator:
American Airlines
More flights by this operator :: More flights under this callsign
Pilot: Drew L. (13237)
Aircraft: BOEING 737-800
(B738)
More flights by this aircraft type
Origin: KCLE Cleveland-Hopkins Intl
United States
Destination: KDCA Ronald Reagan Washington Natl
United States
More flights between these airports :: More routes between these airports
Route: KKIDS1 NUSMM BUCKO FRDMM4
File this flight plan on PilotEdge
Remarks: PBN / A1B1C1D1S1S2 DOF / 181226 REG / N806SB EET / KZDC0024 OPR / AAL PER / C RMK / TCAS SIMBRIEF
Altitude:
(Current/Filed)
31,000ft
Speed:
(Current/Filed)
426kts
Departed: 26-Dec-18 12:55 AM
Arrived: 26-Dec-18 01:41 AM
Distance/Time
Traveled:
269nm/0:46
Distance/Time
To Go:
Arrived

Flight Plot

Page will automatically refresh every two minutes.

Flight plan parsing failed; only flown route is shown


Map Options




Map Legend


Flown Route
Filed Route
Departure Airport
Arrival Airport
Navaid (VOR, NDB)
Fix

Horizontal Profiles

Position Reports

Time Latitude Longitude Heading Altitude Ground
Speed
26-Dec-18 00:33 41.411838 -81.840126 190 791ft 0kts
26-Dec-18 00:34 41.411838 -81.840126 190 791ft 0kts
26-Dec-18 00:35 41.411838 -81.840126 190 791ft 0kts
26-Dec-18 00:36 41.411838 -81.840126 190 791ft 0kts
26-Dec-18 00:37 41.411838 -81.840126 190 791ft 0kts
26-Dec-18 00:38 41.411838 -81.840126 190 791ft 0kts
26-Dec-18 00:39 41.411838 -81.840126 190 791ft 0kts
26-Dec-18 00:40 41.411838 -81.840126 190 791ft 0kts
26-Dec-18 00:41 41.411838 -81.840126 190 791ft 0kts
26-Dec-18 00:42 41.411838 -81.840126 190 791ft 0kts
26-Dec-18 00:43 41.411838 -81.840126 190 791ft 0kts
26-Dec-18 00:44 41.411838 -81.840126 190 791ft 0kts
26-Dec-18 00:45 41.411838 -81.840126 190 791ft 0kts
26-Dec-18 00:46 41.411838 -81.840126 190 791ft 0kts
26-Dec-18 00:47 41.411838 -81.840126 190 791ft 0kts
26-Dec-18 00:48 41.411838 -81.840126 190 791ft 0kts
26-Dec-18 00:49 41.411839 -81.840126 190 791ft 0kts
26-Dec-18 00:50 41.412353 -81.840078 152 790ft 2kts
26-Dec-18 00:51 41.412554 -81.840500 96 790ft 0kts
26-Dec-18 00:52 41.412583 -81.840332 65 790ft 7kts
26-Dec-18 00:53 41.414279 -81.843652 230 788ft 0kts
26-Dec-18 00:54 41.395710 -81.873811 228 1482ft 169kts
26-Dec-18 00:55 41.352653 -81.878319 162 3611ft 189kts
26-Dec-18 00:56 41.300017 -81.835904 144 5148ft 254kts
26-Dec-18 00:57 41.242029 -81.775605 145 7879ft 280kts
26-Dec-18 00:58 41.178077 -81.709317 145 10231ft 313kts
26-Dec-18 00:59 41.104483 -81.633344 144 12355ft 348kts
26-Dec-18 01:00 41.026475 -81.552901 144 14804ft 365kts
26-Dec-18 01:01 40.944515 -81.468662 145 17023ft 382kts
26-Dec-18 01:02 40.859368 -81.381450 145 19016ft 400kts
26-Dec-18 01:03 40.769607 -81.289739 146 20859ft 416kts
26-Dec-18 01:04 40.676383 -81.194733 147 22543ft 431kts
26-Dec-18 01:05 40.579944 -81.096841 147 24090ft 446kts
26-Dec-18 01:06 40.479839 -80.995638 148 25540ft 459kts
26-Dec-18 01:07 40.377459 -80.892572 148 26885ft 472kts
26-Dec-18 01:08 40.271764 -80.786627 148 28137ft 484kts
26-Dec-18 01:09 40.163286 -80.678362 148 29312ft 496kts
26-Dec-18 01:10 40.052120 -80.567896 149 30428ft 507kts
26-Dec-18 01:11 39.938557 -80.455534 149 31456ft 518kts
26-Dec-18 01:12 39.824066 -80.342643 150 31467ft 513kts
26-Dec-18 01:13 39.710561 -80.230924 149 31459ft 513kts
26-Dec-18 01:14 39.596588 -80.119223 149 31459ft 513kts
26-Dec-18 01:15 39.482495 -80.007940 149 31462ft 513kts
26-Dec-18 01:16 39.368993 -79.897076 144 31466ft 516kts
26-Dec-18 01:17 39.275525 -79.753966 117 31474ft 527kts
26-Dec-18 01:18 39.259336 -79.572396 69 31467ft 506kts
26-Dec-18 01:19 39.270896 -79.391227 98 31479ft 525kts
26-Dec-18 01:20 39.243486 -79.207549 92 31250ft 527kts
26-Dec-18 01:21 39.227595 -79.016960 93 28137ft 552kts
26-Dec-18 01:22 39.209621 -78.823456 94 24754ft 533kts
26-Dec-18 01:23 39.191416 -78.638420 94 21593ft 505kts
26-Dec-18 01:24 39.174264 -78.466992 94 19415ft 463kts
26-Dec-18 01:25 39.151929 -78.312930 107 17296ft 438kts
26-Dec-18 01:26 39.115487 -78.169238 107 15118ft 418kts
26-Dec-18 01:27 39.081033 -78.032921 107 12962ft 397kts
26-Dec-18 01:28 39.046943 -77.900079 107 11577ft 386kts
26-Dec-18 01:29 39.013602 -77.770787 107 10185ft 373kts
26-Dec-18 01:30 38.982340 -77.650336 107 8775ft 329kts
26-Dec-18 01:31 38.952522 -77.548525 104 7991ft 283kts
26-Dec-18 01:32 38.964243 -77.452071 63 7428ft 286kts
26-Dec-18 01:33 38.995893 -77.358072 64 5632ft 280kts
26-Dec-18 01:34 39.015898 -77.264468 98 3959ft 268kts
26-Dec-18 01:35 38.985433 -77.186319 120 3323ft 217kts
26-Dec-18 01:36 38.957123 -77.129066 125 2525ft 165kts
26-Dec-18 01:37 38.930595 -77.086500 134 1642ft 148kts
26-Dec-18 01:38 38.895915 -77.058513 152 888ft 146kts
26-Dec-18 01:39 38.860125 -77.038641 174 43ft 148kts
26-Dec-18 01:40 38.842066 -77.037645 323 22ft 10kts
26-Dec-18 01:41 38.847476 -77.038761 355 22ft 33kts
26-Dec-18 01:42 38.852769 -77.039702 303 22ft 5kts
26-Dec-18 01:43 38.852649 -77.040729 223 22ft 0kts

Navigation Log

Ident Type
Flight plan parsing failed, navigation log unavailable